Weather at Denver International Airport

Public forecast

Using degrees Fahrenheit for public forecast. Weather courtesy of forecast.io.

Current aviation weather report (METAR) for Denver International Airport

Retrieved 2022/05/19 06:53 UTC (55 minutes ago):

KDEN 190653Z 19012KT 10SM FEW120 SCT250 17/03 A2988 RMK AO2 SLP037 T01720033 402830094

Aviation forecast (TAF) for Denver International Airport

Retrieved 2022/05/19 06:39 UTC (1 hour ago):

TAF KDEN 190536Z 1906/2012 21011KT P6SM FEW120 FEW220 FM191500 24012KT P6SM SCT220 FM191800 26015G25KT P6SM FEW100 SCT220 FM192100 27020G32KT P6SM FEW110 SCT220 FM200200 25012KT P6SM SCT220 FM200400 03017G27KT P6SM SCT100 BKN180 FM200900 03019KT P6SM OVC050